Terminal Aerodrome Forecast
Issued by NWS Jacksonville, FL

Home | Current Version | Previous Version | Text Only | Print | Product List | Glossary On
Versions: 1 2 3 4 5 6 7 8 9 10 11 12 13 14 15 16 17
000
FTUS42 KJAX 271720
TAFSSI
TAF
KSSI 271720Z 2718/2818 09013G23KT 5SM -SHRA BR SCT010 BKN030 OVC045
      TEMPO 2718/2722 2SM +SHRA BR BKN010 OVC025
     FM280000 12014G22KT P6SM VCSH SCT015 OVC025
     FM280600 14013KT P6SM BKN015 OVC040
     FM281400 15013G20KT P6SM VCSH SCT015 BKN025=

USA.gov is the U.S. government's official web portal to all federal, state and local government web resources and services.